createdAt,value
2024-05-09T00:00:29.642Z,13.44
2024-05-09T00:00:46.529Z,13.44
2024-05-09T00:01:07.719Z,13.43
2024-05-09T00:01:28.809Z,13.44
2024-05-09T00:01:49.883Z,13.44
2024-05-09T00:02:10.986Z,13.44
2024-05-09T00:02:32.088Z,13.43
2024-05-09T00:02:53.200Z,13.44
2024-05-09T00:03:14.335Z,13.44
2024-05-09T00:03:35.422Z,13.44
2024-05-09T00:03:56.510Z,13.43
2024-05-09T00:04:17.583Z,13.43
2024-05-09T00:04:38.688Z,13.43
2024-05-09T00:04:59.783Z,13.43
2024-05-09T00:05:21.091Z,13.43
2024-05-09T00:05:42.863Z,13.43
2024-05-09T00:06:04.327Z,13.43
2024-05-09T00:06:25.456Z,13.43
2024-05-09T00:06:46.525Z,13.43
2024-05-09T00:07:07.592Z,13.43
2024-05-09T00:07:28.625Z,13.43
2024-05-09T00:07:49.714Z,13.42
2024-05-09T00:08:11.078Z,13.43
2024-05-09T00:08:32.498Z,13.42
2024-05-09T00:08:53.641Z,13.42
2024-05-09T00:09:14.700Z,13.42
2024-05-09T00:09:35.768Z,13.41
2024-05-09T00:09:56.813Z,13.42
2024-05-09T00:10:25.400Z,13.41
2024-05-09T00:10:45.103Z,13.42
2024-05-09T00:11:06.294Z,13.40
2024-05-09T00:11:27.519Z,13.40
2024-05-09T00:11:48.834Z,13.40
2024-05-09T00:12:10.145Z,13.40
2024-05-09T00:12:31.287Z,13.39
2024-05-09T00:12:52.332Z,13.39
2024-05-09T00:13:13.406Z,13.40
2024-05-09T00:13:34.457Z,13.38
2024-05-09T00:13:55.533Z,13.38
2024-05-09T00:14:16.648Z,13.38
2024-05-09T00:14:37.744Z,13.37
2024-05-09T00:14:58.791Z,13.37
2024-05-09T00:15:19.852Z,13.37
2024-05-09T00:15:40.915Z,13.37
2024-05-09T00:16:02.015Z,13.36
2024-05-09T00:16:23.099Z,13.37
2024-05-09T00:16:44.190Z,13.36
2024-05-09T00:17:05.289Z,13.35
2024-05-09T00:17:26.486Z,13.35
2024-05-09T00:17:47.761Z,13.35
2024-05-09T00:18:09.175Z,13.35
2024-05-09T00:18:30.604Z,13.35
2024-05-09T00:18:51.773Z,13.34
2024-05-09T00:19:13.115Z,13.34
2024-05-09T00:19:34.382Z,13.33
2024-05-09T00:19:55.446Z,13.33
2024-05-09T00:20:20.665Z,13.32
2024-05-09T00:20:43.493Z,13.33
2024-05-09T00:21:04.671Z,13.32
2024-05-09T00:21:25.741Z,13.32
2024-05-09T00:21:46.785Z,13.31
2024-05-09T00:22:07.828Z,13.30
2024-05-09T00:22:28.880Z,13.30
2024-05-09T00:22:49.964Z,13.29
2024-05-09T00:23:12.212Z,13.29
2024-05-09T00:23:34.167Z,13.29
2024-05-09T00:23:55.322Z,13.28
2024-05-09T00:24:16.335Z,13.28
2024-05-09T00:24:37.391Z,13.27
2024-05-09T00:24:58.447Z,13.27
2024-05-09T00:25:19.498Z,13.27
2024-05-09T00:25:40.556Z,13.26
2024-05-09T00:26:01.659Z,13.25
2024-05-09T00:26:22.900Z,13.26
2024-05-09T00:26:43.978Z,13.25
2024-05-09T00:27:05.027Z,13.25
2024-05-09T00:27:26.079Z,13.24
2024-05-09T00:27:47.130Z,13.24
2024-05-09T00:28:08.192Z,13.23
2024-05-09T00:28:29.263Z,13.23
2024-05-09T00:28:50.352Z,13.23
2024-05-09T00:29:11.457Z,13.22
2024-05-09T00:29:32.554Z,13.21
2024-05-09T00:29:53.571Z,13.21
2024-05-09T00:30:21.555Z,13.20
2024-05-09T00:30:41.693Z,13.21
2024-05-09T00:31:02.732Z,13.19
2024-05-09T00:31:23.828Z,13.19
2024-05-09T00:31:44.985Z,13.19
2024-05-09T00:32:06.111Z,13.18
2024-05-09T00:32:27.294Z,13.17
2024-05-09T00:32:48.546Z,13.17
2024-05-09T00:33:10.940Z,13.17
2024-05-09T00:33:32.884Z,13.16
2024-05-09T00:33:54.055Z,13.16
2024-05-09T00:34:15.264Z,13.15
2024-05-09T00:34:36.351Z,13.15
2024-05-09T00:34:57.482Z,13.15
2024-05-09T00:35:18.742Z,13.14
2024-05-09T00:35:40.069Z,13.14
2024-05-09T00:36:01.216Z,13.13
2024-05-09T00:36:22.259Z,13.13
2024-05-09T00:36:43.379Z,13.12
2024-05-09T00:37:04.486Z,13.11
2024-05-09T00:37:25.533Z,13.11
2024-05-09T00:37:46.684Z,13.10
2024-05-09T00:38:07.849Z,13.10
2024-05-09T00:38:28.995Z,13.09
2024-05-09T00:38:50.069Z,13.08
2024-05-09T00:39:11.117Z,13.08
2024-05-09T00:39:32.183Z,13.07
2024-05-09T00:39:53.234Z,13.07
2024-05-09T00:40:22.452Z,13.06
2024-05-09T00:40:43.147Z,13.06
2024-05-09T00:41:04.936Z,13.05
2024-05-09T00:41:26.031Z,13.04
2024-05-09T00:41:47.220Z,13.04
2024-05-09T00:42:08.327Z,13.03
2024-05-09T00:42:29.373Z,13.02
2024-05-09T00:42:50.430Z,13.02
2024-05-09T00:43:12.380Z,13.01
2024-05-09T00:43:34.459Z,13.00
2024-05-09T00:43:55.496Z,13.00
2024-05-09T00:44:16.675Z,13.00
2024-05-09T00:44:37.768Z,12.99
2024-05-09T00:44:58.807Z,12.99
2024-05-09T00:45:19.866Z,12.98
2024-05-09T00:45:40.974Z,12.98
2024-05-09T00:46:02.090Z,12.97
2024-05-09T00:46:23.146Z,12.97
2024-05-09T00:46:44.241Z,12.96
2024-05-09T00:47:05.393Z,12.95
2024-05-09T00:47:26.779Z,12.95
2024-05-09T00:47:48.149Z,12.95
2024-05-09T00:48:10.599Z,12.94
2024-05-09T00:48:32.964Z,12.93
2024-05-09T00:48:54.225Z,12.94
2024-05-09T00:49:15.334Z,12.92
2024-05-09T00:49:36.510Z,12.92
2024-05-09T00:49:57.641Z,12.92
2024-05-09T00:50:23.044Z,12.92
2024-05-09T00:50:45.779Z,12.92
2024-05-09T00:51:06.858Z,12.90
2024-05-09T00:51:27.906Z,12.89
2024-05-09T00:51:48.969Z,12.89
2024-05-09T00:52:10.095Z,12.89
2024-05-09T00:52:31.175Z,12.89
2024-05-09T00:52:52.263Z,12.88
2024-05-09T00:53:13.424Z,12.89
2024-05-09T00:53:34.628Z,12.88
2024-05-09T00:53:55.745Z,12.88
2024-05-09T00:54:16.821Z,12.88
2024-05-09T00:54:37.866Z,12.87
2024-05-09T00:54:58.941Z,12.87
2024-05-09T00:55:19.999Z,12.87
2024-05-09T00:55:41.058Z,12.87
2024-05-09T00:56:02.143Z,12.86
2024-05-09T00:56:23.209Z,12.86
2024-05-09T00:56:44.272Z,12.86
2024-05-09T00:57:05.357Z,12.85
2024-05-09T00:57:26.467Z,12.84
2024-05-09T00:57:47.560Z,12.85
2024-05-09T00:58:08.637Z,12.84
2024-05-09T00:58:29.687Z,12.84
2024-05-09T00:58:50.796Z,12.83
2024-05-09T00:59:11.937Z,12.83
2024-05-09T00:59:33.070Z,12.82
2024-05-09T00:59:54.128Z,12.82
2024-05-09T01:00:25.963Z,12.82
2024-05-09T01:00:42.226Z,12.82
2024-05-09T01:01:03.309Z,12.81
2024-05-09T01:01:24.608Z,12.80
2024-05-09T01:01:45.775Z,12.80
2024-05-09T01:02:07.054Z,12.79
2024-05-09T01:02:28.239Z,12.79
2024-05-09T01:02:49.369Z,12.78
2024-05-09T01:03:12.485Z,12.78
2024-05-09T01:03:35.206Z,12.78
2024-05-09T01:03:56.588Z,12.77
2024-05-09T01:04:17.686Z,12.76
2024-05-09T01:04:38.781Z,12.76
2024-05-09T01:04:59.951Z,12.76
2024-05-09T01:05:21.037Z,12.75
2024-05-09T01:05:42.579Z,12.74
2024-05-09T01:06:04.022Z,12.74
2024-05-09T01:06:25.058Z,12.74
2024-05-09T01:06:46.115Z,12.73
2024-05-09T01:07:07.173Z,12.73
2024-05-09T01:07:28.236Z,12.72
2024-05-09T01:07:49.348Z,12.72
2024-05-09T01:08:10.914Z,12.71
2024-05-09T01:08:32.225Z,12.71
2024-05-09T01:08:53.334Z,12.70
2024-05-09T01:09:14.447Z,12.70
2024-05-09T01:09:35.506Z,12.69
2024-05-09T01:09:56.560Z,12.69
2024-05-09T01:10:24.208Z,12.67
2024-05-09T01:10:46.130Z,12.68
2024-05-09T01:11:09.113Z,12.67
2024-05-09T01:11:30.225Z,12.66
2024-05-09T01:11:51.452Z,12.65
2024-05-09T01:12:12.677Z,12.65
2024-05-09T01:12:33.891Z,12.65
2024-05-09T01:12:55.240Z,12.64
2024-05-09T01:13:16.316Z,12.64
2024-05-09T01:13:37.362Z,12.63
2024-05-09T01:13:58.458Z,12.63
2024-05-09T01:14:19.525Z,12.63
2024-05-09T01:14:40.561Z,12.63
2024-05-09T01:15:01.645Z,12.62
2024-05-09T01:15:22.665Z,12.62
2024-05-09T01:15:43.726Z,12.62
2024-05-09T01:16:04.775Z,12.61
2024-05-09T01:16:25.826Z,12.60
2024-05-09T01:16:46.922Z,12.60
2024-05-09T01:17:08.021Z,12.59
2024-05-09T01:17:29.284Z,12.59
2024-05-09T01:17:50.590Z,12.58
2024-05-09T01:18:13.224Z,12.58
2024-05-09T01:18:34.973Z,12.57
2024-05-09T01:18:56.130Z,12.57
2024-05-09T01:19:17.454Z,12.57
2024-05-09T01:19:38.657Z,12.56
2024-05-09T01:19:59.891Z,12.55
2024-05-09T01:20:31.752Z,12.55
2024-05-09T01:20:47.981Z,12.55
2024-05-09T01:21:09.056Z,12.54
2024-05-09T01:21:30.098Z,12.54
2024-05-09T01:21:51.170Z,12.53
2024-05-09T01:22:12.205Z,12.53
2024-05-09T01:22:33.262Z,12.52
2024-05-09T01:22:54.352Z,12.52
2024-05-09T01:23:16.602Z,12.51
2024-05-09T01:23:37.975Z,12.51
2024-05-09T01:23:59.058Z,12.50
2024-05-09T01:24:20.110Z,12.49
2024-05-09T01:24:41.151Z,12.48
2024-05-09T01:25:02.255Z,12.48
2024-05-09T01:25:23.302Z,12.48
2024-05-09T01:25:44.638Z,12.47
2024-05-09T01:26:05.889Z,12.46
2024-05-09T01:26:27.004Z,12.46
2024-05-09T01:26:48.050Z,12.45
2024-05-09T01:27:09.096Z,12.44
2024-05-09T01:27:30.142Z,12.44
2024-05-09T01:27:51.210Z,12.44
2024-05-09T01:28:12.253Z,12.43
2024-05-09T01:28:33.355Z,12.42
2024-05-09T01:28:54.512Z,12.42
2024-05-09T01:29:15.634Z,12.41
2024-05-09T01:29:36.781Z,12.40
2024-05-09T01:29:57.854Z,12.40
2024-05-09T01:30:24.332Z,12.40
2024-05-09T01:30:45.893Z,12.40
2024-05-09T01:31:06.942Z,12.38
2024-05-09T01:31:28.041Z,12.37
2024-05-09T01:31:49.112Z,12.38
2024-05-09T01:32:10.364Z,12.37
2024-05-09T01:32:31.687Z,12.35
2024-05-09T01:32:53.014Z,12.35
2024-05-09T01:33:14.661Z,12.35
2024-05-09T01:33:36.013Z,12.34
2024-05-09T01:33:57.538Z,12.34
2024-05-09T01:34:18.681Z,12.34
2024-05-09T01:34:39.711Z,12.33
2024-05-09T01:35:00.853Z,12.32
2024-05-09T01:35:22.095Z,12.31
2024-05-09T01:35:43.458Z,12.31
2024-05-09T01:36:04.541Z,12.31
2024-05-09T01:36:25.605Z,12.31
2024-05-09T01:36:46.664Z,12.30
2024-05-09T01:37:07.727Z,12.29
2024-05-09T01:37:28.781Z,12.28
2024-05-09T01:37:49.877Z,12.28
2024-05-09T01:38:10.961Z,12.27
2024-05-09T01:38:32.152Z,12.27
2024-05-09T01:38:53.358Z,12.27
2024-05-09T01:39:14.442Z,12.25
2024-05-09T01:39:35.520Z,12.25
2024-05-09T01:39:56.586Z,12.24
2024-05-09T01:40:22.125Z,12.23
2024-05-09T01:40:44.674Z,12.24
2024-05-09T01:41:05.758Z,12.23
2024-05-09T01:41:26.889Z,12.23
2024-05-09T01:41:48.004Z,12.22
2024-05-09T01:42:09.090Z,12.21
2024-05-09T01:42:30.123Z,12.20
2024-05-09T01:42:51.197Z,12.21
2024-05-09T01:43:12.464Z,12.20
2024-05-09T01:43:33.516Z,12.19
2024-05-09T01:43:54.674Z,12.19
2024-05-09T01:44:15.782Z,12.18
2024-05-09T01:44:37.157Z,12.18
2024-05-09T01:44:58.214Z,12.17
2024-05-09T01:45:19.277Z,12.18
2024-05-09T01:45:40.892Z,12.18
2024-05-09T01:46:02.151Z,12.17
2024-05-09T01:46:23.221Z,12.17
2024-05-09T01:46:44.279Z,12.16
2024-05-09T01:47:05.352Z,12.15
2024-05-09T01:47:26.769Z,12.15
2024-05-09T01:47:48.300Z,12.15
2024-05-09T01:48:10.439Z,12.14
2024-05-09T01:48:32.137Z,12.14
2024-05-09T01:48:53.368Z,12.13
2024-05-09T01:49:14.755Z,12.13
2024-05-09T01:49:36.179Z,12.12
2024-05-09T01:49:57.360Z,12.12
2024-05-09T01:50:22.538Z,12.12
2024-05-09T01:50:45.437Z,12.11
2024-05-09T01:51:06.606Z,12.10
2024-05-09T01:51:27.674Z,12.09
2024-05-09T01:51:48.743Z,12.09
2024-05-09T01:52:09.818Z,12.09
2024-05-09T01:52:30.854Z,12.08
2024-05-09T01:52:51.995Z,12.07
2024-05-09T01:53:13.838Z,12.07
2024-05-09T01:53:35.573Z,12.06
2024-05-09T01:53:56.626Z,12.06
2024-05-09T01:54:17.716Z,12.05
2024-05-09T01:54:38.986Z,12.04
2024-05-09T01:55:02.007Z,12.04
2024-05-09T01:55:24.389Z,12.04
2024-05-09T01:55:45.482Z,12.02
2024-05-09T01:56:06.630Z,12.01
2024-05-09T01:56:27.761Z,12.01
2024-05-09T01:56:48.883Z,12.00
2024-05-09T01:57:09.933Z,11.99
2024-05-09T01:57:30.992Z,11.99
2024-05-09T01:57:52.064Z,11.99
2024-05-09T01:58:13.087Z,11.98
2024-05-09T01:58:34.154Z,11.98
2024-05-09T01:58:55.254Z,11.97
2024-05-09T01:59:16.355Z,11.96
2024-05-09T01:59:37.692Z,11.96
2024-05-09T01:59:58.968Z,11.96
2024-05-09T02:00:30.212Z,11.95
2024-05-09T02:00:47.014Z,11.94
2024-05-09T02:01:08.098Z,11.94
2024-05-09T02:01:29.241Z,11.92
2024-05-09T02:01:57.715Z,11.93
2024-05-09T02:02:19.242Z,11.92
2024-05-09T02:02:40.446Z,11.91
2024-05-09T02:03:02.026Z,11.90
2024-05-09T02:03:23.510Z,11.90
2024-05-09T02:03:44.911Z,11.89
2024-05-09T02:04:06.551Z,11.89
2024-05-09T02:04:28.107Z,11.88
2024-05-09T02:04:49.320Z,11.88
2024-05-09T02:05:10.869Z,11.87
2024-05-09T02:05:32.187Z,11.87
2024-05-09T02:05:53.307Z,11.87
2024-05-09T02:06:14.508Z,11.86
2024-05-09T02:06:35.565Z,11.86
2024-05-09T02:06:56.643Z,11.85
2024-05-09T02:07:17.731Z,11.85
2024-05-09T02:07:38.845Z,11.85
2024-05-09T02:07:59.941Z,11.83
2024-05-09T02:08:21.534Z,11.84
2024-05-09T02:08:42.921Z,11.83
2024-05-09T02:09:03.967Z,11.83
2024-05-09T02:09:25.023Z,11.82
2024-05-09T02:09:46.087Z,11.81
2024-05-09T02:10:13.776Z,11.81
2024-05-09T02:10:34.348Z,11.81
2024-05-09T02:10:55.540Z,11.79
2024-05-09T02:11:16.630Z,11.78
2024-05-09T02:11:37.767Z,11.78
2024-05-09T02:11:59.080Z,11.78
2024-05-09T02:12:20.283Z,11.77
2024-05-09T02:12:41.348Z,11.77
2024-05-09T02:13:02.398Z,11.76
2024-05-09T02:13:23.462Z,11.75
2024-05-09T02:13:44.550Z,11.75
2024-05-09T02:14:05.625Z,11.73
2024-05-09T02:14:26.885Z,11.73
2024-05-09T02:14:47.954Z,11.71
2024-05-09T02:15:09.089Z,11.72
2024-05-09T02:15:30.177Z,11.70
2024-05-09T02:15:51.239Z,11.70
2024-05-09T02:16:12.312Z,11.69
2024-05-09T02:16:33.345Z,11.69
2024-05-09T02:16:54.438Z,11.68
2024-05-09T02:17:15.658Z,11.67
2024-05-09T02:17:36.894Z,11.67
2024-05-09T02:17:58.134Z,11.66
2024-05-09T02:18:19.401Z,11.66
2024-05-09T02:18:40.659Z,11.65
2024-05-09T02:19:01.888Z,11.64
2024-05-09T02:19:23.183Z,11.64
2024-05-09T02:19:44.396Z,11.63
2024-05-09T02:20:06.255Z,11.63
2024-05-09T02:20:33.876Z,11.61
2024-05-09T02:20:54.681Z,11.62
2024-05-09T02:21:15.747Z,11.60
2024-05-09T02:21:36.785Z,11.60
2024-05-09T02:21:57.838Z,11.59
2024-05-09T02:22:18.888Z,11.58
2024-05-09T02:22:39.940Z,11.58
2024-05-09T02:23:01.063Z,11.58
2024-05-09T02:23:22.235Z,11.57
2024-05-09T02:23:43.364Z,11.57
2024-05-09T02:24:04.381Z,11.56
2024-05-09T02:24:25.435Z,11.55
2024-05-09T02:24:46.482Z,11.55
2024-05-09T02:25:07.634Z,11.54
2024-05-09T02:25:28.712Z,11.53
2024-05-09T02:25:49.816Z,11.53
2024-05-09T02:26:10.925Z,11.52
2024-05-09T02:26:32.075Z,11.52
2024-05-09T02:26:53.099Z,11.51
2024-05-09T02:27:14.148Z,11.50
2024-05-09T02:27:35.253Z,11.50
2024-05-09T02:27:56.310Z,11.50
2024-05-09T02:28:17.379Z,11.49
2024-05-09T02:28:38.438Z,11.48
2024-05-09T02:28:59.536Z,11.48
2024-05-09T02:29:20.637Z,11.47
2024-05-09T02:29:41.700Z,11.47
2024-05-09T02:30:02.858Z,11.46
2024-05-09T02:30:34.892Z,11.47
2024-05-09T02:30:51.604Z,11.46
2024-05-09T02:31:12.687Z,11.45
2024-05-09T02:31:33.737Z,11.44
2024-05-09T02:31:54.904Z,11.44
2024-05-09T02:32:16.070Z,11.44
2024-05-09T02:32:37.268Z,11.43
2024-05-09T02:32:58.599Z,11.43
2024-05-09T02:33:20.049Z,11.42
2024-05-09T02:33:41.337Z,11.41
2024-05-09T02:34:02.639Z,11.40
2024-05-09T02:34:23.776Z,11.40
2024-05-09T02:34:44.893Z,11.40
2024-05-09T02:35:06.020Z,11.39
2024-05-09T02:35:27.196Z,11.39
2024-05-09T02:35:48.306Z,11.38
2024-05-09T02:36:09.379Z,11.37
2024-05-09T02:36:30.470Z,11.37
2024-05-09T02:36:51.519Z,11.36
2024-05-09T02:37:12.564Z,11.37
2024-05-09T02:37:33.614Z,11.35
2024-05-09T02:37:54.699Z,11.34
2024-05-09T02:38:15.806Z,11.33
2024-05-09T02:38:36.978Z,11.33
2024-05-09T02:38:58.071Z,11.32
2024-05-09T02:39:19.146Z,11.32
2024-05-09T02:39:40.221Z,11.32
2024-05-09T02:40:01.272Z,11.31
2024-05-09T02:40:29.209Z,11.30
2024-05-09T02:40:49.330Z,11.30
2024-05-09T02:41:10.669Z,11.28
2024-05-09T02:41:31.869Z,11.28
2024-05-09T02:41:52.907Z,11.28
2024-05-09T02:42:13.964Z,11.26
2024-05-09T02:42:35.021Z,11.26
2024-05-09T02:42:56.087Z,11.25
2024-05-09T02:43:17.152Z,11.25
2024-05-09T02:43:38.201Z,11.24
2024-05-09T02:43:59.303Z,11.23
2024-05-09T02:44:20.375Z,11.23
2024-05-09T02:44:41.434Z,11.22
2024-05-09T02:45:02.480Z,11.21
2024-05-09T02:45:23.531Z,11.21
2024-05-09T02:45:44.592Z,11.20
2024-05-09T02:46:05.618Z,11.19
2024-05-09T02:46:26.725Z,11.19
2024-05-09T02:46:47.845Z,11.18
2024-05-09T02:47:09.054Z,11.18
2024-05-09T02:47:30.288Z,11.17
2024-05-09T02:47:51.644Z,11.16
2024-05-09T02:48:13.958Z,11.16
2024-05-09T02:48:35.526Z,11.15
2024-05-09T02:48:56.720Z,11.14
2024-05-09T02:49:17.917Z,11.13
2024-05-09T02:49:39.135Z,11.13
2024-05-09T02:50:00.255Z,11.13
2024-05-09T02:50:29.752Z,11.12
2024-05-09T02:50:48.430Z,11.12
2024-05-09T02:51:09.575Z,11.11
2024-05-09T02:51:30.686Z,11.11
2024-05-09T02:51:51.787Z,11.10
2024-05-09T02:52:12.831Z,11.09
2024-05-09T02:52:33.939Z,11.09
2024-05-09T02:52:54.987Z,11.08
2024-05-09T02:53:16.069Z,11.08
2024-05-09T02:53:37.419Z,11.07
2024-05-09T02:53:58.534Z,11.06
2024-05-09T02:54:19.605Z,11.06
2024-05-09T02:54:40.657Z,11.06
2024-05-09T02:55:01.711Z,11.06
2024-05-09T02:55:22.770Z,11.05
2024-05-09T02:55:43.810Z,11.05
2024-05-09T02:56:04.941Z,11.04
2024-05-09T02:56:26.080Z,11.04
2024-05-09T02:56:47.181Z,11.03
2024-05-09T02:57:08.252Z,11.03
2024-05-09T02:57:29.325Z,11.02
2024-05-09T02:57:50.364Z,11.00
2024-05-09T02:58:11.441Z,11.01
2024-05-09T02:58:32.483Z,11.01
2024-05-09T02:58:53.602Z,11.01
2024-05-09T02:59:14.710Z,11.00
2024-05-09T02:59:35.814Z,10.99
2024-05-09T02:59:56.872Z,10.99
2024-05-09T03:00:22.839Z,10.99
2024-05-09T03:00:44.914Z,10.99
2024-05-09T03:01:06.051Z,10.98
2024-05-09T03:01:27.127Z,10.98
2024-05-09T03:01:48.268Z,10.97
2024-05-09T03:02:09.569Z,10.96
2024-05-09T03:02:30.855Z,10.97
2024-05-09T03:02:52.100Z,10.97
2024-05-09T03:03:15.187Z,10.96
2024-05-09T03:03:37.205Z,10.95
2024-05-09T03:03:58.497Z,10.95
2024-05-09T03:04:19.655Z,10.95
2024-05-09T03:04:40.744Z,10.94
2024-05-09T03:05:01.804Z,10.94
2024-05-09T03:05:22.880Z,10.94
2024-05-09T03:05:44.504Z,10.94
2024-05-09T03:06:05.948Z,10.93
2024-05-09T03:06:27.000Z,10.93
2024-05-09T03:06:48.058Z,10.93
2024-05-09T03:07:09.150Z,10.92
2024-05-09T03:07:30.244Z,10.93
2024-05-09T03:07:51.333Z,10.92
2024-05-09T03:08:12.614Z,10.92
2024-05-09T03:08:34.029Z,10.92
2024-05-09T03:08:55.204Z,10.91
2024-05-09T03:09:16.249Z,10.92
2024-05-09T03:09:37.278Z,10.91
2024-05-09T03:09:58.337Z,10.91
2024-05-09T03:10:25.545Z,10.91
2024-05-09T03:10:46.383Z,10.90
2024-05-09T03:11:07.594Z,10.89
2024-05-09T03:11:28.819Z,10.90
2024-05-09T03:11:50.087Z,10.89
2024-05-09T03:12:11.407Z,10.89
2024-05-09T03:12:33.584Z,10.89
2024-05-09T03:12:55.564Z,10.87
2024-05-09T03:13:16.850Z,10.88
2024-05-09T03:13:37.897Z,10.88
2024-05-09T03:13:58.985Z,10.87
2024-05-09T03:14:20.069Z,10.87
2024-05-09T03:14:41.179Z,10.87
2024-05-09T03:15:02.217Z,10.87
2024-05-09T03:15:23.266Z,10.87
2024-05-09T03:15:44.616Z,10.86
2024-05-09T03:16:05.813Z,10.86
2024-05-09T03:16:26.880Z,10.86
2024-05-09T03:16:47.940Z,10.85
2024-05-09T03:17:09.039Z,10.85
2024-05-09T03:17:30.411Z,10.86
2024-05-09T03:17:51.862Z,10.85
2024-05-09T03:18:13.596Z,10.84
2024-05-09T03:18:34.996Z,10.84
2024-05-09T03:18:56.215Z,10.85
2024-05-09T03:19:17.471Z,10.84
2024-05-09T03:19:38.607Z,10.84
2024-05-09T03:19:59.698Z,10.83
2024-05-09T03:20:24.263Z,10.83
2024-05-09T03:20:47.796Z,10.84
2024-05-09T03:21:09.051Z,10.83
2024-05-09T03:21:30.095Z,10.83
2024-05-09T03:21:51.213Z,10.83
2024-05-09T03:22:12.324Z,10.83
2024-05-09T03:22:33.404Z,10.82
2024-05-09T03:22:56.962Z,10.82
2024-05-09T03:23:18.171Z,10.82
2024-05-09T03:23:39.357Z,10.81
2024-05-09T03:24:00.487Z,10.82
2024-05-09T03:24:21.528Z,10.81
2024-05-09T03:24:42.572Z,10.81
2024-05-09T03:25:03.628Z,10.81
2024-05-09T03:25:24.679Z,10.81
2024-05-09T03:25:45.794Z,10.80
2024-05-09T03:26:06.879Z,10.80
2024-05-09T03:26:28.030Z,10.79
2024-05-09T03:26:49.112Z,10.79
2024-05-09T03:27:10.161Z,10.79
2024-05-09T03:27:31.216Z,10.79
2024-05-09T03:27:52.313Z,10.78
2024-05-09T03:28:13.601Z,10.77
2024-05-09T03:28:34.634Z,10.77
2024-05-09T03:28:55.710Z,10.77
2024-05-09T03:29:16.802Z,10.77
2024-05-09T03:29:37.878Z,10.77
2024-05-09T03:29:58.921Z,10.76
2024-05-09T03:30:29.576Z,10.76
2024-05-09T03:30:46.960Z,10.76
2024-05-09T03:31:08.015Z,10.75
2024-05-09T03:31:29.094Z,10.75
2024-05-09T03:31:50.252Z,10.74
2024-05-09T03:32:11.456Z,10.74
2024-05-09T03:32:32.566Z,10.74
2024-05-09T03:32:53.792Z,10.74
2024-05-09T03:33:15.969Z,10.74
2024-05-09T03:33:37.687Z,10.73
2024-05-09T03:33:59.023Z,10.73
2024-05-09T03:34:20.176Z,10.73
2024-05-09T03:34:41.197Z,10.73
2024-05-09T03:35:02.346Z,10.73
2024-05-09T03:35:23.574Z,10.73
2024-05-09T03:35:44.682Z,10.72
2024-05-09T03:36:08.969Z,10.72
2024-05-09T03:36:31.522Z,10.72
2024-05-09T03:36:52.579Z,10.71
2024-05-09T03:37:13.625Z,10.71
2024-05-09T03:37:34.686Z,10.70
2024-05-09T03:37:55.806Z,10.70
2024-05-09T03:38:17.153Z,10.70
2024-05-09T03:38:38.474Z,10.69
2024-05-09T03:38:59.589Z,10.70
2024-05-09T03:39:20.682Z,10.69
2024-05-09T03:39:41.715Z,10.69
2024-05-09T03:40:03.023Z,10.68
2024-05-09T03:40:26.808Z,10.68
2024-05-09T03:40:51.441Z,10.68
2024-05-09T03:41:12.772Z,10.67
2024-05-09T03:41:33.868Z,10.67
2024-05-09T03:41:54.923Z,10.67
2024-05-09T03:42:15.979Z,10.66
2024-05-09T03:42:37.034Z,10.66
2024-05-09T03:42:58.125Z,10.65
2024-05-09T03:43:19.399Z,10.65
2024-05-09T03:43:40.637Z,10.65
2024-05-09T03:44:01.734Z,10.64
2024-05-09T03:44:22.855Z,10.64
2024-05-09T03:44:43.937Z,10.64
2024-05-09T03:45:05.000Z,10.65
2024-05-09T03:45:26.045Z,10.63
2024-05-09T03:45:47.102Z,10.64
2024-05-09T03:46:08.178Z,10.63
2024-05-09T03:46:29.211Z,10.63
2024-05-09T03:46:50.278Z,10.62
2024-05-09T03:47:11.477Z,10.62
2024-05-09T03:47:32.639Z,10.62
2024-05-09T03:47:53.990Z,10.62
2024-05-09T03:48:15.580Z,10.61
2024-05-09T03:48:36.926Z,10.61
2024-05-09T03:48:58.054Z,10.61
2024-05-09T03:49:19.219Z,10.62
2024-05-09T03:49:40.660Z,10.61
2024-05-09T03:50:01.830Z,10.60
2024-05-09T03:50:29.950Z,10.61
2024-05-09T03:50:49.863Z,10.60
2024-05-09T03:51:11.108Z,10.60
2024-05-09T03:51:32.292Z,10.59
2024-05-09T03:51:53.340Z,10.59
2024-05-09T03:52:14.406Z,10.59
2024-05-09T03:52:35.472Z,10.58
2024-05-09T03:52:56.534Z,10.58
2024-05-09T03:53:17.669Z,10.58
2024-05-09T03:53:38.782Z,10.58
2024-05-09T03:53:59.902Z,10.58
2024-05-09T03:54:20.968Z,10.58
2024-05-09T03:54:42.007Z,10.58
2024-05-09T03:55:03.069Z,10.57
2024-05-09T03:55:24.120Z,10.57
2024-05-09T03:55:45.377Z,10.56
2024-05-09T03:56:06.544Z,10.57
2024-05-09T03:56:27.722Z,10.56
2024-05-09T03:56:48.798Z,10.56
2024-05-09T03:57:09.866Z,10.56
2024-05-09T03:57:30.975Z,10.57
2024-05-09T03:57:51.984Z,10.55
2024-05-09T03:58:13.210Z,10.55
2024-05-09T03:58:34.284Z,10.55
2024-05-09T03:58:55.584Z,10.55
2024-05-09T03:59:16.702Z,10.55
2024-05-09T03:59:37.816Z,10.55
2024-05-09T03:59:58.843Z,10.55
2024-05-09T04:00:30.055Z,10.54
2024-05-09T04:00:46.927Z,10.55
2024-05-09T04:01:08.026Z,10.54
2024-05-09T04:01:29.087Z,10.54
2024-05-09T04:01:50.237Z,10.54
2024-05-09T04:02:11.430Z,10.53
2024-05-09T04:02:32.672Z,10.53
2024-05-09T04:02:53.914Z,10.53
2024-05-09T04:03:15.428Z,10.53
2024-05-09T04:03:36.874Z,10.53
2024-05-09T04:03:58.059Z,10.52
2024-05-09T04:04:19.120Z,10.53
2024-05-09T04:04:40.223Z,10.52
2024-05-09T04:05:01.358Z,10.52
2024-05-09T04:05:22.499Z,10.52
2024-05-09T04:05:44.339Z,10.52
2024-05-09T04:06:05.763Z,10.51
2024-05-09T04:06:26.819Z,10.51
2024-05-09T04:06:47.865Z,10.51
2024-05-09T04:07:08.922Z,10.51
2024-05-09T04:07:29.978Z,10.50
2024-05-09T04:07:51.067Z,10.50
2024-05-09T04:08:12.300Z,10.49
2024-05-09T04:08:33.514Z,10.50
2024-05-09T04:08:54.780Z,10.49
2024-05-09T04:09:15.877Z,10.49
2024-05-09T04:09:36.930Z,10.49
2024-05-09T04:09:57.986Z,10.48
2024-05-09T04:10:27.690Z,10.49
2024-05-09T04:10:46.159Z,10.50
2024-05-09T04:11:07.314Z,10.48
2024-05-09T04:11:28.496Z,10.48
2024-05-09T04:11:49.739Z,10.48
2024-05-09T04:12:10.920Z,10.48
2024-05-09T04:12:32.124Z,10.48
2024-05-09T04:12:53.207Z,10.47
2024-05-09T04:13:14.314Z,10.47
2024-05-09T04:13:35.358Z,10.47
2024-05-09T04:13:56.462Z,10.47
2024-05-09T04:14:17.550Z,10.47
2024-05-09T04:14:38.712Z,10.46
2024-05-09T04:14:59.957Z,10.47
2024-05-09T04:15:21.093Z,10.47
2024-05-09T04:15:42.126Z,10.46
2024-05-09T04:16:03.176Z,10.46
2024-05-09T04:16:24.227Z,10.45
2024-05-09T04:16:45.335Z,10.45
2024-05-09T04:17:06.514Z,10.45
2024-05-09T04:17:27.736Z,10.45
2024-05-09T04:17:49.490Z,10.44
2024-05-09T04:18:10.803Z,10.44
2024-05-09T04:18:31.998Z,10.43
2024-05-09T04:18:53.133Z,10.44
2024-05-09T04:19:14.603Z,10.42
2024-05-09T04:19:35.828Z,10.43
2024-05-09T04:19:56.892Z,10.43
2024-05-09T04:20:28.772Z,10.43
2024-05-09T04:20:44.960Z,10.43
2024-05-09T04:21:06.152Z,10.42
2024-05-09T04:21:27.296Z,10.42
2024-05-09T04:21:48.361Z,10.42
2024-05-09T04:22:09.413Z,10.42
2024-05-09T04:22:30.466Z,10.42
2024-05-09T04:22:51.597Z,10.41
2024-05-09T04:23:13.529Z,10.42
2024-05-09T04:23:35.154Z,10.41
2024-05-09T04:23:56.195Z,10.41
2024-05-09T04:24:17.317Z,10.41
2024-05-09T04:24:38.383Z,10.41
2024-05-09T04:24:59.459Z,10.41
2024-05-09T04:25:20.510Z,10.41
2024-05-09T04:25:41.588Z,10.41
2024-05-09T04:26:02.675Z,10.41
2024-05-09T04:26:23.777Z,10.40
2024-05-09T04:26:44.825Z,10.41
2024-05-09T04:27:05.879Z,10.40
2024-05-09T04:27:27.013Z,10.41
2024-05-09T04:27:48.104Z,10.41
2024-05-09T04:28:09.152Z,10.40
2024-05-09T04:28:30.206Z,10.40
2024-05-09T04:28:51.405Z,10.40
2024-05-09T04:29:12.628Z,10.40
2024-05-09T04:29:33.775Z,10.39
2024-05-09T04:29:54.904Z,10.40
2024-05-09T04:30:25.377Z,10.39
2024-05-09T04:30:43.425Z,10.41
2024-05-09T04:31:04.638Z,10.41
2024-05-09T04:31:25.699Z,10.41
2024-05-09T04:31:46.840Z,10.41
2024-05-09T04:32:08.010Z,10.42
2024-05-09T04:32:29.337Z,10.42
2024-05-09T04:32:50.551Z,10.42
2024-05-09T04:33:13.599Z,10.42
2024-05-09T04:33:35.890Z,10.42
2024-05-09T04:33:57.277Z,10.42
2024-05-09T04:34:18.579Z,10.42
2024-05-09T04:34:39.846Z,10.42
2024-05-09T04:35:00.936Z,10.44
2024-05-09T04:35:22.019Z,10.43
2024-05-09T04:35:43.747Z,10.43
2024-05-09T04:36:05.093Z,10.43